Time;durP1;ratioP1;P1;durP2;ratioP2;P2;SDS_P1;SDS_P2;PMS_P1;PMS_P2;Temp;Humidity;BMP_temperature;BMP_pressure;BME280_temperature;BME280_humidity;BME280_pressure;Samples;Min_cycle;Max_cycle;Signal;HPM_P1;HPM_P2
2023/03/22 00:07:59;;;;;;;1999.90;999.90;;;10.90;99.90;;;;;;6722724;88;20178;-77
2023/03/22 00:18:01;;;;;;;1999.90;999.90;;;10.90;99.90;;;;;;6723095;88;20660;-77
2023/03/22 00:28:01;;;;;;;1999.90;999.90;;;10.90;99.90;;;;;;6721094;88;20235;-77
2023/03/22 00:38:12;;;;;;;1999.90;999.90;;;10.80;99.90;;;;;;6720261;88;22391;-77
2023/03/22 00:48:13;;;;;;;1999.90;999.90;;;11.00;99.90;;;;;;6729341;88;20723;-77
2023/03/22 00:58:14;;;;;;;1999.90;999.90;;;10.90;99.90;;;;;;6740464;88;20193;-77
2023/03/22 01:08:15;;;;;;;1999.90;999.90;;;10.80;99.90;;;;;;6722097;88;20210;-77
2023/03/22 01:18:16;;;;;;;1999.90;999.90;;;10.80;99.90;;;;;;6716479;88;20217;-78
2023/03/22 01:28:17;;;;;;;1999.90;999.90;;;10.70;99.90;;;;;;6722194;88;20183;-77
2023/03/22 01:38:18;;;;;;;1999.90;999.90;;;10.70;99.90;;;;;;6719058;88;20640;-77
2023/03/22 01:48:25;;;;;;;1999.90;999.90;;;10.70;99.90;;;;;;6718351;88;20177;-78
2023/03/22 01:58:26;;;;;;;1999.90;999.90;;;10.60;99.90;;;;;;6724907;88;21118;-77
2023/03/22 02:08:27;;;;;;;1999.90;999.90;;;10.60;99.90;;;;;;6737670;88;20188;-77
2023/03/22 02:18:46;;;;;;;1999.90;999.90;;;10.60;99.90;;;;;;6739755;88;20687;-77
2023/03/22 02:29:11;;;;;;;1999.90;999.90;;;10.70;99.90;;;;;;6737527;88;20264;-76
2023/03/22 02:39:34;;;;;;;1999.90;999.90;;;10.60;99.90;;;;;;6722552;88;20320;-76
2023/03/22 02:49:48;;;;;;;1999.90;999.90;;;10.50;99.90;;;;;;6730559;88;20227;-76
2023/03/22 02:59:50;;;;;;;1999.90;999.90;;;10.50;99.90;;;;;;6729803;88;20219;-76
2023/03/22 03:09:51;;;;;;;1999.90;999.90;;;10.50;99.90;;;;;;6730566;88;20165;-76
2023/03/22 03:19:55;;;;;;;1999.90;999.90;;;10.60;99.90;;;;;;6737340;88;20197;-77
2023/03/22 03:30:10;;;;;;;1999.90;999.90;;;10.50;99.90;;;;;;6732068;88;20293;-76
2023/03/22 03:50:15;;;;;;;1999.90;999.90;;;10.40;99.90;;;;;;6753724;88;20291;-83
2023/03/22 04:00:16;;;;;;;1999.90;999.90;;;10.30;99.90;;;;;;6731492;88;21072;-82
2023/03/22 04:10:18;;;;;;;1999.90;999.90;;;10.20;99.90;;;;;;6731356;88;20180;-82
2023/03/22 04:20:19;;;;;;;1999.90;999.90;;;10.20;99.90;;;;;;6696937;88;20189;-83
2023/03/22 04:30:23;;;;;;;1999.90;999.90;;;10.10;99.90;;;;;;6706720;88;21116;-83
2023/03/22 04:40:25;;;;;;;1999.90;999.90;;;10.00;99.90;;;;;;6697040;89;20269;-83
2023/03/22 04:50:27;;;;;;;1999.90;999.90;;;10.00;99.90;;;;;;6710284;88;20185;-84
2023/03/22 05:00:29;;;;;;;1999.90;999.90;;;10.00;99.90;;;;;;6696935;89;20175;-83
2023/03/22 05:10:30;;;;;;;1999.90;999.90;;;9.80;99.90;;;;;;6701939;88;20180;-82
2023/03/22 05:20:31;;;;;;;1999.90;999.90;;;9.70;99.90;;;;;;6730610;88;20257;-82
2023/03/22 05:30:32;;;;;;;1999.90;999.90;;;9.40;99.90;;;;;;6692883;88;20566;-84
2023/03/22 05:50:37;;;;;;;1999.90;999.90;;;9.10;99.90;;;;;;6699795;88;20196;-84
2023/03/22 06:10:40;;;;;;;1999.90;999.90;;;9.20;99.90;;;;;;6716816;88;20216;-84
2023/03/22 07:12:05;;;;;;;1999.90;999.90;;;10.40;99.90;;;;;;6752475;88;20661;-83
2023/03/22 07:52:17;;;;;;;1999.90;999.90;;;12.70;99.90;;;;;;6770315;88;20924;-84
2023/03/22 08:23:24;;;;;;;1999.90;999.90;;;13.00;99.90;;;;;;6762236;88;20176;-83
2023/03/22 08:33:24;;;;;;;1999.90;999.90;;;12.90;99.90;;;;;;6751644;88;20457;-84
2023/03/22 08:43:25;;;;;;;1999.90;999.90;;;13.70;99.90;;;;;;6751538;88;20290;-82
2023/03/22 08:53:26;;;;;;;1999.90;999.90;;;13.90;99.90;;;;;;6731800;88;20177;-83
2023/03/22 09:03:29;;;;;;;1999.90;999.90;;;13.80;99.90;;;;;;6714320;88;20166;-83
2023/03/22 09:13:30;;;;;;;1999.90;999.90;;;14.50;99.90;;;;;;6714276;88;20345;-83
2023/03/22 09:23:31;;;;;;;1999.90;999.90;;;15.00;99.90;;;;;;6716015;88;20194;-82
2023/03/22 09:33:32;;;;;;;1999.90;999.90;;;14.50;99.90;;;;;;6730650;88;20232;-83
2023/03/22 09:44:14;;;;;;;1999.90;999.90;;;14.50;99.90;;;;;;6720689;77;20701;-81
2023/03/22 09:54:20;;;;;;;1999.90;999.90;;;14.60;99.90;;;;;;6730500;88;20313;-81
2023/03/22 10:04:49;;;;;;;1999.90;999.90;;;14.90;99.90;;;;;;6727659;88;20210;-80
2023/03/22 10:14:55;;;;;;;1999.90;999.90;;;15.30;99.90;;;;;;6725056;88;20240;-80
2023/03/22 10:24:56;;;;;;;1999.90;999.90;;;15.30;99.90;;;;;;6732953;88;20194;-81
2023/03/22 10:34:57;;;;;;;1999.90;999.90;;;15.90;99.90;;;;;;6736973;88;20260;-81
2023/03/22 10:45:15;;;;;;;1999.90;999.90;;;16.40;99.90;;;;;;6735376;88;20191;-80
2023/03/22 10:55:16;;;;;;;1999.90;999.90;;;16.40;99.90;;;;;;6726109;88;20183;-80
2023/03/22 11:05:28;;;;;;;1999.90;999.90;;;15.90;99.90;;;;;;6734085;88;20177;-79
2023/03/22 11:15:31;;;;;;;1999.90;999.90;;;16.10;99.90;;;;;;6707828;88;20262;-78
2023/03/22 11:25:35;;;;;;;1999.90;999.90;;;15.90;99.90;;;;;;6706213;88;20229;-78
2023/03/22 11:35:37;;;;;;;1999.90;999.90;;;15.80;99.90;;;;;;6707217;88;20604;-78
2023/03/22 11:45:41;;;;;;;1999.90;999.90;;;15.60;99.90;;;;;;6706269;88;20194;-78
2023/03/22 11:55:43;;;;;;;1999.90;999.90;;;15.60;99.90;;;;;;6706136;88;20189;-79
2023/03/22 12:05:48;;;;;;;1999.90;999.90;;;15.30;99.90;;;;;;6705726;88;20574;-78
2023/03/22 12:15:56;;;;;;;1999.90;999.90;;;15.00;99.90;;;;;;6705529;88;20244;-78
2023/03/22 12:26:05;;;;;;;1999.90;999.90;;;15.10;99.90;;;;;;6711599;88;20591;-78
2023/03/22 12:36:13;;;;;;;1999.90;999.90;;;14.90;99.90;;;;;;6705520;88;20609;-78
2023/03/22 12:46:22;;;;;;;1999.90;999.90;;;14.80;99.90;;;;;;6705571;88;20186;-79
2023/03/22 12:56:39;;;;;;;1999.90;999.90;;;14.60;99.90;;;;;;6704976;88;20315;-78
2023/03/22 13:06:40;;;;;;;1999.90;999.90;;;14.30;99.90;;;;;;6718103;88;20913;-78
2023/03/22 13:16:51;;;;;;;1999.90;999.90;;;14.10;99.90;;;;;;6722615;88;20297;-80
2023/03/22 13:26:53;;;;;;;1999.90;999.90;;;14.00;99.90;;;;;;6709542;88;20237;-78
2023/03/22 13:36:56;;;;;;;1999.90;999.90;;;13.90;99.90;;;;;;6721397;88;20185;-78
2023/03/22 13:47:00;;;;;;;1999.90;999.90;;;14.00;99.90;;;;;;6741635;88;20261;-80
2023/03/22 13:57:00;;;;;;;1999.90;999.90;;;14.10;99.90;;;;;;6727972;88;20228;-80
2023/03/22 14:07:20;;;;;;;1999.90;999.90;;;14.10;99.90;;;;;;6726964;88;20233;-79
2023/03/22 14:17:28;;;;;;;1999.90;999.90;;;14.10;99.90;;;;;;6721777;88;20337;-78
2023/03/22 14:27:32;;;;;;;1999.90;999.90;;;14.40;99.90;;;;;;6736899;88;20215;-78
2023/03/22 14:37:33;;;;;;;1999.90;999.90;;;14.20;99.90;;;;;;6724993;88;20206;-78
2023/03/22 14:47:42;;;;;;;1999.90;999.90;;;14.40;99.90;;;;;;6721682;88;20186;-79
2023/03/22 14:57:57;;;;;;;1999.90;999.90;;;14.60;99.90;;;;;;6708992;88;20186;-78
2023/03/22 15:08:17;;;;;;;1999.90;999.90;;;14.40;99.90;;;;;;6731257;88;20189;-80
2023/03/22 15:18:20;;;;;;;1999.90;999.90;;;14.50;99.90;;;;;;6733435;88;20185;-78
2023/03/22 15:28:21;;;;;;;1999.90;999.90;;;14.60;99.90;;;;;;6714710;88;20251;-78
2023/03/22 15:38:30;;;;;;;1999.90;999.90;;;14.50;99.90;;;;;;6728687;88;20189;-79
2023/03/22 15:49:06;;;;;;;1999.90;999.90;;;14.50;99.90;;;;;;6782993;77;20273;-83
2023/03/22 15:59:29;;;;;;;1999.90;999.90;;;14.40;99.90;;;;;;6749789;88;20851;-84
2023/03/22 16:09:29;;;;;;;1999.90;999.90;;;14.40;99.90;;;;;;6730118;88;20826;-84
2023/03/22 16:19:30;;;;;;;1999.90;999.90;;;14.40;99.90;;;;;;6733229;88;20177;-84
2023/03/22 16:29:52;;;;;;;1999.90;999.90;;;14.30;99.90;;;;;;6732372;88;20192;-84
2023/03/22 16:39:57;;;;;;;1999.90;999.90;;;14.40;99.90;;;;;;6612180;89;20187;-84
2023/03/22 16:49:59;;;;;;;1999.90;999.90;;;14.30;99.90;;;;;;6611097;89;20824;-85
2023/03/22 17:00:01;;;;;;;1999.90;999.90;;;14.30;99.90;;;;;;6596139;90;20238;-85
2023/03/22 17:30:09;;;;;;;1999.90;999.90;;;14.30;99.90;;;;;;6749209;88;20173;-85
2023/03/22 18:01:36;;;;;;;1999.90;999.90;;;14.20;99.90;;;;;;7002610;77;20231;-83
2023/03/22 18:12:17;;;;;;;1999.90;999.90;;;14.10;99.90;;;;;;7144430;77;20177;-85
2023/03/22 18:32:45;;;;;;;1999.90;999.90;;;14.10;99.90;;;;;;6741282;77;20178;-84
2023/03/22 19:13:10;;;;;;;1999.90;999.90;;;14.00;99.90;;;;;;6761889;88;20224;-84
2023/03/22 19:33:35;;;;;;;1999.90;999.90;;;14.00;99.90;;;;;;6795339;76;20154;-84
2023/03/22 20:04:24;;;;;;;1999.90;999.90;;;14.00;99.90;;;;;;6807260;77;20245;-84
2023/03/22 20:14:24;;;;;;;1999.90;999.90;;;14.10;99.90;;;;;;6690412;88;20241;-84
2023/03/22 20:24:45;;;;;;;1999.90;999.90;;;14.00;99.90;;;;;;6730044;77;20248;-84
2023/03/22 20:34:46;;;;;;;1999.90;999.90;;;14.10;99.90;;;;;;6746123;88;20211;-84
2023/03/22 20:44:47;;;;;;;1999.90;999.90;;;14.10;99.90;;;;;;6749941;88;21016;-84
2023/03/22 20:55:08;;;;;;;1999.90;999.90;;;14.10;99.90;;;;;;6759055;77;20225;-85
2023/03/22 21:05:13;;;;;;;1999.90;999.90;;;14.10;99.90;;;;;;6751915;88;20475;-85
2023/03/22 21:15:17;;;;;;;1999.90;999.90;;;14.00;99.90;;;;;;6751102;88;20881;-82
2023/03/22 21:25:18;;;;;;;1999.90;999.90;;;14.10;99.90;;;;;;6716386;88;20262;-83
2023/03/22 21:35:20;;;;;;;1999.90;999.90;;;14.10;99.90;;;;;;6714061;88;20182;-86
2023/03/22 21:46:01;;;;;;;1999.90;999.90;;;14.20;99.90;;;;;;6700998;78;20676;-76
2023/03/22 21:56:02;;;;;;;1999.90;999.90;;;14.20;99.90;;;;;;6688941;88;20365;-76
2023/03/22 22:06:03;;;;;;;1999.90;999.90;;;14.30;99.90;;;;;;6681384;88;20187;-76
2023/03/22 22:16:12;;;;;;;1999.90;999.90;;;14.20;99.90;;;;;;6685956;88;21102;-77
2023/03/22 22:26:15;;;;;;;1999.90;999.90;;;14.10;99.90;;;;;;6687491;88;20728;-76
2023/03/22 22:36:16;;;;;;;1999.90;999.90;;;13.60;99.90;;;;;;6678848;88;20195;-76
2023/03/22 22:46:16;;;;;;;1999.90;999.90;;;12.70;99.90;;;;;;6697027;88;20222;-76
2023/03/22 22:56:18;;;;;;;1999.90;999.90;;;12.40;99.90;;;;;;6699129;88;20213;-77
2023/03/22 23:06:21;;;;;;;1999.90;999.90;;;12.70;99.90;;;;;;6687651;88;20689;-76
2023/03/22 23:16:23;;;;;;;1999.90;999.90;;;13.00;99.90;;;;;;6680584;88;20685;-76
2023/03/22 23:26:25;;;;;;;1999.90;999.90;;;13.00;99.90;;;;;;6681905;88;20251;-76
2023/03/22 23:36:26;;;;;;;1999.90;999.90;;;13.30;99.90;;;;;;6684336;88;20186;-76
2023/03/22 23:46:27;;;;;;;1999.90;999.90;;;13.30;99.90;;;;;;6681634;88;20336;-76
2023/03/22 23:56:29;;;;;;;1999.90;999.90;;;13.40;99.90;;;;;;6685316;88;20191;-76
